createdAt,value
2023-01-30T00:03:37.620Z,45.51
2023-01-30T00:08:40.158Z,46.06
2023-01-30T00:13:42.729Z,45.80
2023-01-30T00:18:45.419Z,45.92
2023-01-30T00:23:47.595Z,46.31
2023-01-30T00:28:49.700Z,46.49
2023-01-30T00:33:51.823Z,46.67
2023-01-30T00:38:54.055Z,46.06
2023-01-30T00:44:14.739Z,46.37
2023-01-30T00:49:16.761Z,46.67
2023-01-30T00:54:18.989Z,46.34
2023-01-30T00:59:21.263Z,45.97
2023-01-30T01:04:23.376Z,45.94
2023-01-30T01:09:25.647Z,45.99
2023-01-30T01:14:27.890Z,46.10
2023-01-30T01:19:30.399Z,46.60
2023-01-30T01:24:32.527Z,46.70
2023-01-30T01:29:34.717Z,46.58
2023-01-30T01:34:36.799Z,46.77
2023-01-30T01:39:57.488Z,47.16
2023-01-30T01:45:18.238Z,47.00
2023-01-30T01:50:25.742Z,47.12
2023-01-30T01:55:28.957Z,46.85
2023-01-30T02:00:32.488Z,47.06
2023-01-30T02:05:39.221Z,47.07
2023-01-30T02:10:53.603Z,46.81
2023-01-30T02:16:00.842Z,46.90
2023-01-30T02:21:43.572Z,47.00
2023-01-30T02:27:07.288Z,47.20
2023-01-30T02:32:24.496Z,47.68
2023-01-30T02:37:47.872Z,47.64
2023-01-30T02:43:01.892Z,47.51
2023-01-30T02:48:05.775Z,47.76
2023-01-30T02:53:08.324Z,47.92
2023-01-30T02:58:11.648Z,47.75
2023-01-30T03:03:35.283Z,47.45
2023-01-30T03:08:51.571Z,47.82
2023-01-30T03:14:02.717Z,47.53
2023-01-30T03:19:09.531Z,47.58
2023-01-30T03:24:12.804Z,48.34
2023-01-30T03:29:15.794Z,48.30
2023-01-30T03:34:17.909Z,48.25
2023-01-30T03:39:20.228Z,48.63
2023-01-30T03:44:22.555Z,48.68
2023-01-30T03:49:24.678Z,48.38
2023-01-30T03:54:26.825Z,48.33
2023-01-30T03:59:28.930Z,48.17
2023-01-30T04:04:31.135Z,48.36
2023-01-30T04:09:33.227Z,47.92
2023-01-30T04:14:35.561Z,48.79
2023-01-30T04:19:37.695Z,48.40
2023-01-30T04:24:40.004Z,48.77
2023-01-30T04:29:42.796Z,48.80
2023-01-30T04:34:45.527Z,48.61
2023-01-30T04:39:47.711Z,48.49
2023-01-30T04:44:49.933Z,48.85
2023-01-30T04:49:52.059Z,48.52
2023-01-30T04:54:54.148Z,48.42
2023-01-30T04:59:56.264Z,48.22
2023-01-30T05:04:58.457Z,48.81
2023-01-30T05:10:00.539Z,48.43
2023-01-30T05:15:02.901Z,48.65
2023-01-30T05:20:06.691Z,48.59
2023-01-30T05:25:09.691Z,48.33
2023-01-30T05:30:12.392Z,48.14
2023-01-30T05:35:14.504Z,48.19
2023-01-30T05:40:16.781Z,48.12
2023-01-30T05:45:19.197Z,47.65
2023-01-30T05:50:22.031Z,47.73
2023-01-30T06:00:39.932Z,47.32
2023-01-30T06:05:41.978Z,47.59
2023-01-30T06:10:44.207Z,47.56
2023-01-30T06:15:46.593Z,48.07
2023-01-30T06:20:53.256Z,48.26
2023-01-30T06:25:56.095Z,47.34
2023-01-30T06:30:58.602Z,47.07
2023-01-30T06:36:01.120Z,47.48
2023-01-30T06:41:03.362Z,47.39
2023-01-30T06:46:05.820Z,47.21
2023-01-30T06:51:08.020Z,47.51
2023-01-30T06:56:10.289Z,47.48
2023-01-30T07:01:13.240Z,47.29
2023-01-30T07:06:15.473Z,46.75
2023-01-30T07:11:17.570Z,46.64
2023-01-30T07:16:19.823Z,45.95
2023-01-30T07:21:21.933Z,45.45
2023-01-30T07:26:25.326Z,45.00
2023-01-30T07:31:27.457Z,45.24
2023-01-30T07:36:29.819Z,45.51
2023-01-30T07:41:32.219Z,46.03
2023-01-30T07:46:35.655Z,45.70
2023-01-30T07:51:37.865Z,45.08
2023-01-30T07:56:40.433Z,45.70
2023-01-30T08:01:42.561Z,45.23
2023-01-30T08:06:44.693Z,45.36
2023-01-30T08:11:46.858Z,44.67
2023-01-30T08:16:49.379Z,44.38
2023-01-30T08:21:51.556Z,44.43
2023-01-30T08:26:53.777Z,44.62
2023-01-30T08:31:59.574Z,43.85
2023-01-30T08:37:01.859Z,43.09
2023-01-30T08:42:04.141Z,42.90
2023-01-30T08:47:06.363Z,42.85
2023-01-30T08:52:08.604Z,41.45
2023-01-30T08:57:10.891Z,41.81
2023-01-30T09:02:13.690Z,42.32
2023-01-30T09:07:15.991Z,42.01
2023-01-30T09:12:18.263Z,40.68
2023-01-30T09:17:20.464Z,40.04
2023-01-30T09:22:22.618Z,39.65
2023-01-30T09:27:24.978Z,39.15
2023-01-30T09:32:27.199Z,39.18
2023-01-30T09:37:29.307Z,39.12
2023-01-30T09:43:08.811Z,38.80
2023-01-30T09:48:19.466Z,37.99
2023-01-30T09:53:28.071Z,37.64
2023-01-30T09:58:57.838Z,36.63
2023-01-30T10:04:16.174Z,37.85
2023-01-30T10:09:31.614Z,37.55
2023-01-30T10:14:47.843Z,37.53
2023-01-30T10:19:55.768Z,37.71
2023-01-30T10:25:19.553Z,37.08
2023-01-30T10:30:22.197Z,36.92
2023-01-30T10:35:29.965Z,36.89
2023-01-30T10:40:39.036Z,37.45
2023-01-30T10:45:47.797Z,36.53
2023-01-30T10:51:06.410Z,36.20
2023-01-30T10:56:39.199Z,36.52
2023-01-30T11:02:07.095Z,36.01
2023-01-30T11:07:10.332Z,36.36
2023-01-30T11:12:13.312Z,36.41
2023-01-30T11:17:18.717Z,35.92
2023-01-30T11:22:21.141Z,35.50
2023-01-30T11:27:29.763Z,36.04
2023-01-30T11:32:32.117Z,36.07
2023-01-30T11:37:39.993Z,36.42
2023-01-30T11:42:45.298Z,35.96
2023-01-30T11:47:57.757Z,35.85
2023-01-30T11:53:05.759Z,35.59
2023-01-30T11:58:10.087Z,36.17
2023-01-30T12:03:18.924Z,36.67
2023-01-30T12:08:31.301Z,36.02
2023-01-30T12:13:45.776Z,35.76
2023-01-30T12:19:04.906Z,34.98
2023-01-30T12:24:27.994Z,36.03
2023-01-30T12:29:36.415Z,35.42
2023-01-30T12:34:38.631Z,35.27
2023-01-30T12:39:58.691Z,35.46
2023-01-30T12:45:15.053Z,34.30
2023-01-30T12:50:34.975Z,34.65
2023-01-30T12:55:58.428Z,34.80
2023-01-30T13:01:28.371Z,34.61
2023-01-30T13:06:51.846Z,35.55
2023-01-30T13:12:12.394Z,35.16
2023-01-30T13:17:23.658Z,35.23
2023-01-30T13:22:54.747Z,35.39
2023-01-30T13:28:03.651Z,35.49
2023-01-30T13:33:30.256Z,34.95
2023-01-30T13:38:35.471Z,34.51
2023-01-30T13:43:50.946Z,34.06
2023-01-30T13:49:06.452Z,33.48
2023-01-30T13:54:20.309Z,34.00
2023-01-30T13:59:28.148Z,34.06
2023-01-30T14:04:41.919Z,34.13
2023-01-30T14:09:50.547Z,33.18
2023-01-30T14:15:08.006Z,33.36
2023-01-30T14:20:22.691Z,33.85
2023-01-30T14:25:30.721Z,34.36
2023-01-30T14:30:46.075Z,34.04
2023-01-30T14:36:03.284Z,33.89
2023-01-30T14:41:05.347Z,33.93
2023-01-30T14:46:19.471Z,34.24
2023-01-30T14:51:39.694Z,34.07
2023-01-30T14:56:57.394Z,34.21
2023-01-30T15:02:14.910Z,33.65
2023-01-30T15:07:27.765Z,33.37
2023-01-30T15:12:51.390Z,33.42
2023-01-30T15:18:14.446Z,33.34
2023-01-30T15:23:44.285Z,33.51
2023-01-30T15:29:17.021Z,34.83
2023-01-30T15:34:20.635Z,36.21
2023-01-30T15:39:27.478Z,37.29
2023-01-30T15:44:36.868Z,37.77
2023-01-30T15:50:10.181Z,38.44
2023-01-30T15:55:26.463Z,39.10
2023-01-30T16:00:32.294Z,40.05
2023-01-30T16:05:34.534Z,40.34
2023-01-30T16:10:45.388Z,40.66
2023-01-30T16:15:56.812Z,40.90
2023-01-30T16:21:03.328Z,41.06
2023-01-30T16:26:18.357Z,41.87
2023-01-30T16:31:20.694Z,41.97
2023-01-30T16:36:22.907Z,42.78
2023-01-30T16:41:35.263Z,42.34
2023-01-30T16:46:43.223Z,43.03
2023-01-30T16:51:46.146Z,43.36
2023-01-30T17:02:35.901Z,43.23
2023-01-30T17:07:38.353Z,43.79
2023-01-30T17:12:44.327Z,44.17
2023-01-30T17:17:46.717Z,44.18
2023-01-30T17:22:52.865Z,44.25
2023-01-30T17:27:55.133Z,44.48
2023-01-30T17:32:57.310Z,44.73
2023-01-30T17:38:05.336Z,44.38
2023-01-30T17:43:09.888Z,43.69
2023-01-30T17:48:13.670Z,44.57
2023-01-30T17:53:15.867Z,44.93
2023-01-30T17:58:19.167Z,45.02
2023-01-30T18:03:21.284Z,45.14
2023-01-30T18:08:23.390Z,44.25
2023-01-30T18:13:25.517Z,45.20
2023-01-30T18:18:27.739Z,45.25
2023-01-30T18:23:29.884Z,44.74
2023-01-30T18:28:32.095Z,44.98
2023-01-30T18:33:34.463Z,45.29
2023-01-30T18:38:36.941Z,45.16
2023-01-30T18:43:39.701Z,45.39
2023-01-30T18:48:42.774Z,45.69
2023-01-30T18:53:47.010Z,46.22
2023-01-30T18:58:56.581Z,45.80
2023-01-30T19:04:01.683Z,45.95
2023-01-30T19:09:05.020Z,45.68
2023-01-30T19:14:08.120Z,45.79
2023-01-30T19:19:10.695Z,46.40
2023-01-30T19:24:14.864Z,46.55
2023-01-30T19:29:18.577Z,46.53
2023-01-30T19:34:20.831Z,46.90
2023-01-30T19:39:23.070Z,46.79
2023-01-30T19:44:25.170Z,47.19
2023-01-30T19:49:27.269Z,47.81
2023-01-30T19:54:29.592Z,47.71
2023-01-30T19:59:31.823Z,47.98
2023-01-30T20:04:33.943Z,48.90
2023-01-30T20:09:36.200Z,48.73
2023-01-30T20:14:38.381Z,48.90
2023-01-30T20:19:40.597Z,49.48
2023-01-30T20:24:42.799Z,49.66
2023-01-30T20:29:44.971Z,49.08
2023-01-30T20:34:47.223Z,49.26
2023-01-30T20:39:51.406Z,49.71
2023-01-30T20:44:53.581Z,50.29
2023-01-30T20:49:55.793Z,50.28
2023-01-30T20:55:00.620Z,50.01
2023-01-30T21:00:05.201Z,49.95
2023-01-30T21:05:08.406Z,49.66
2023-01-30T21:10:11.218Z,49.88
2023-01-30T21:15:13.446Z,49.67
2023-01-30T21:20:15.985Z,49.46
2023-01-30T21:25:19.292Z,49.91
2023-01-30T21:30:21.635Z,49.83
2023-01-30T21:35:23.816Z,50.18
2023-01-30T21:40:44.578Z,49.90
2023-01-30T21:45:46.633Z,50.80
2023-01-30T21:50:49.225Z,49.80
2023-01-30T21:55:53.378Z,49.50
2023-01-30T22:00:55.596Z,49.56
2023-01-30T22:05:57.879Z,49.43
2023-01-30T22:11:19.726Z,50.16
2023-01-30T22:16:27.477Z,50.23
2023-01-30T22:21:32.890Z,50.59
2023-01-30T22:26:36.460Z,51.35
2023-01-30T22:31:40.841Z,51.28
2023-01-30T22:36:43.093Z,51.33
2023-01-30T22:41:45.264Z,51.79
2023-01-30T22:46:50.519Z,51.21
2023-01-30T22:51:52.654Z,51.07
2023-01-30T22:56:54.972Z,51.14
2023-01-30T23:01:57.131Z,50.58
2023-01-30T23:06:59.903Z,50.68
2023-01-30T23:12:20.680Z,50.86
2023-01-30T23:17:41.229Z,50.38
2023-01-30T23:22:43.704Z,50.43
2023-01-30T23:27:45.975Z,50.16
2023-01-30T23:32:48.190Z,51.08
2023-01-30T23:38:08.954Z,51.37
2023-01-30T23:43:11.320Z,51.86
2023-01-30T23:48:13.473Z,50.84
2023-01-30T23:53:15.686Z,50.94
2023-01-30T23:58:17.830Z,50.90
